createdAt,value
2017-07-22T00:00:15.457Z,1015.17
2017-07-22T00:01:37.019Z,1015.21
2017-07-22T00:02:59.688Z,1015.15
2017-07-22T00:04:21.516Z,1015.18
2017-07-22T00:05:43.410Z,1015.16
2017-07-22T00:07:05.684Z,1015.14
2017-07-22T00:08:28.133Z,1015.16
2017-07-22T00:09:50.297Z,1015.14
2017-07-22T00:11:12.457Z,1015.14
2017-07-22T00:12:34.598Z,1015.14
2017-07-22T00:13:56.418Z,1015.1
2017-07-22T00:15:19.010Z,1015.12
2017-07-22T00:16:40.937Z,1015.11
2017-07-22T00:18:02.448Z,1015.09
2017-07-22T00:19:24.635Z,1015.09
2017-07-22T00:20:46.489Z,1015.05
2017-07-22T00:22:08.954Z,1015.03
2017-07-22T00:23:30.137Z,1015.04
2017-07-22T00:24:52.225Z,1015.01
2017-07-22T00:26:14.050Z,1014.99
2017-07-22T00:27:35.916Z,1014.94
2017-07-22T00:28:57.455Z,1014.92
2017-07-22T00:30:19.317Z,1014.87
2017-07-22T00:31:41.198Z,1014.87
2017-07-22T00:33:03.149Z,1014.86
2017-07-22T00:34:25.404Z,1014.92
2017-07-22T00:35:47.539Z,1014.9
2017-07-22T00:37:09.708Z,1014.91
2017-07-22T00:38:31.667Z,1014.93
2017-07-22T00:39:53.887Z,1014.92
2017-07-22T00:41:16.289Z,1014.91
2017-07-22T00:42:38.453Z,1014.89
2017-07-22T00:44:00.299Z,1014.88
2017-07-22T00:45:21.836Z,1014.83
2017-07-22T00:46:44.676Z,1014.87
2017-07-22T00:48:06.270Z,1014.9
2017-07-22T00:49:27.788Z,1014.85
2017-07-22T00:50:50.259Z,1014.85
2017-07-22T00:52:12.983Z,1014.84
2017-07-22T00:53:34.858Z,1014.87
2017-07-22T00:54:57.318Z,1014.85
2017-07-22T00:56:19.467Z,1014.82
2017-07-22T00:57:41.224Z,1014.82
2017-07-22T00:59:03.368Z,1014.81
2017-07-22T01:00:24.933Z,1014.79
2017-07-22T01:01:46.448Z,1014.78
2017-07-22T01:03:09.008Z,1014.79
2017-07-22T01:04:30.841Z,1014.8
2017-07-22T01:05:52.380Z,1014.78
2017-07-22T01:07:14.204Z,1014.76
2017-07-22T01:08:36.416Z,1014.77
2017-07-22T01:09:58.909Z,1014.81
2017-07-22T01:11:20.748Z,1014.75
2017-07-22T01:12:42.907Z,1014.67
2017-07-22T01:14:04.355Z,1014.7
2017-07-22T01:15:26.837Z,1014.63
2017-07-22T01:16:49.297Z,1014.63
2017-07-22T01:18:11.435Z,1014.66
2017-07-22T01:19:33.938Z,1014.62
2017-07-22T01:20:55.846Z,1014.61
2017-07-22T01:22:17.784Z,1014.6
2017-07-22T01:23:39.951Z,1014.58
2017-07-22T01:25:02.370Z,1014.59
2017-07-22T01:26:24.634Z,1014.6
2017-07-22T01:27:46.468Z,1014.59
2017-07-22T01:29:07.983Z,1014.65
2017-07-22T01:30:30.212Z,1014.58
2017-07-22T01:31:52.366Z,1014.61
2017-07-22T01:33:14.527Z,1014.58
2017-07-22T01:34:36.697Z,1014.57
2017-07-22T01:35:58.836Z,1014.5
2017-07-22T01:37:20.356Z,1014.52
2017-07-22T01:38:41.873Z,1014.52
2017-07-22T01:40:03.416Z,1014.52
2017-07-22T01:41:25.286Z,1014.46
2017-07-22T01:42:46.827Z,1014.46
2017-07-22T01:44:09.307Z,1014.46
2017-07-22T01:45:30.855Z,1014.43
2017-07-22T01:46:53.668Z,1014.42
2017-07-22T01:48:15.566Z,1014.45
2017-07-22T01:49:37.509Z,1014.47
2017-07-22T01:50:59.039Z,1014.45
2017-07-22T01:52:21.164Z,1014.4
2017-07-22T01:53:43.049Z,1014.41
2017-07-22T01:55:04.565Z,1014.4
2017-07-22T01:56:26.801Z,1014.36
2017-07-22T01:57:49.347Z,1014.31
2017-07-22T01:59:11.168Z,1014.28
2017-07-22T02:00:32.379Z,1014.29
2017-07-22T02:01:53.915Z,1014.3
2017-07-22T02:03:15.721Z,1014.27
2017-07-22T02:04:37.909Z,1014.22
2017-07-22T02:05:59.750Z,1014.19
2017-07-22T02:07:21.566Z,1014.21
2017-07-22T02:08:43.445Z,1014.2
2017-07-22T02:10:05.288Z,1014.19
2017-07-22T02:11:26.857Z,1014.15
2017-07-22T02:12:49.007Z,1014.13
2017-07-22T02:14:11.926Z,1014.15
2017-07-22T02:15:33.567Z,1014.11
2017-07-22T02:16:55.454Z,1014.1
2017-07-22T02:18:17.297Z,1014.08
2017-07-22T02:19:39.677Z,1014.05
2017-07-22T02:21:01.294Z,1014.04
2017-07-22T02:22:23.267Z,1014.08
2017-07-22T02:23:44.789Z,1014.04
2017-07-22T02:25:07.334Z,1014.04
2017-07-22T02:26:28.903Z,1014
2017-07-22T02:27:50.737Z,1013.95
2017-07-22T02:29:12.878Z,1013.97
2017-07-22T02:30:35.009Z,1013.99
2017-07-22T02:31:57.166Z,1013.98
2017-07-22T02:33:19.016Z,1014.02
2017-07-22T02:34:41.166Z,1014.02
2017-07-22T02:36:02.964Z,1014.01
2017-07-22T02:37:25.115Z,1013.97
2017-07-22T02:38:46.347Z,1014
2017-07-22T02:40:08.548Z,1013.99
2017-07-22T02:41:30.937Z,1013.97
2017-07-22T02:42:52.846Z,1013.98
2017-07-22T02:44:15.307Z,1013.95
2017-07-22T02:45:37.947Z,1014.01
2017-07-22T02:47:00.046Z,1013.94
2017-07-22T02:48:22.596Z,1013.91
2017-07-22T02:49:44.129Z,1013.9
2017-07-22T02:51:06.296Z,1013.91
2017-07-22T02:52:28.457Z,1013.88
2017-07-22T02:53:50.017Z,1013.89
2017-07-22T02:55:12.175Z,1013.88
2017-07-22T02:56:34.035Z,1013.89
2017-07-22T02:57:56.587Z,1013.87
2017-07-22T02:59:18.432Z,1013.87
2017-07-22T03:00:41.054Z,1013.88
2017-07-22T03:02:02.569Z,1013.88
2017-07-22T03:03:25.046Z,1013.87
2017-07-22T03:04:46.996Z,1013.91
2017-07-22T03:06:09.277Z,1013.86
2017-07-22T03:07:30.803Z,1013.85
2017-07-22T03:08:53.726Z,1013.85
2017-07-22T03:10:15.546Z,1013.79
2017-07-22T03:11:37.703Z,1013.77
2017-07-22T03:12:59.916Z,1013.85
2017-07-22T03:14:22.436Z,1013.83
2017-07-22T03:15:44.588Z,1013.86
2017-07-22T03:17:06.402Z,1013.86
2017-07-22T03:18:28.059Z,1013.86
2017-07-22T03:19:50.202Z,1013.87
2017-07-22T03:21:12.142Z,1013.89
2017-07-22T03:22:34.286Z,1013.84
2017-07-22T03:23:56.102Z,1013.83
2017-07-22T03:25:17.688Z,1013.83
2017-07-22T03:26:40.186Z,1013.82
2017-07-22T03:28:02.018Z,1013.85
2017-07-22T03:29:24.188Z,1013.81
2017-07-22T03:30:46.999Z,1013.79
2017-07-22T03:32:08.516Z,1013.8
2017-07-22T03:33:30.436Z,1013.79
2017-07-22T03:34:52.600Z,1013.77
2017-07-22T03:36:15.006Z,1013.77
2017-07-22T03:37:36.578Z,1013.66
2017-07-22T03:38:58.726Z,1013.69
2017-07-22T03:40:20.540Z,1013.72
2017-07-22T03:41:42.938Z,1013.73
2017-07-22T03:43:04.782Z,1013.71
2017-07-22T03:44:26.964Z,1013.69
2017-07-22T03:45:48.487Z,1013.67
2017-07-22T03:47:10.734Z,1013.68
2017-07-22T03:48:32.880Z,1013.72
2017-07-22T03:49:54.722Z,1013.75
2017-07-22T03:51:17.197Z,1013.77
2017-07-22T03:52:39.395Z,1013.77
2017-07-22T03:54:01.907Z,1013.81
2017-07-22T03:55:24.386Z,1013.85
2017-07-22T03:56:46.536Z,1013.84
2017-07-22T03:58:08.667Z,1013.85
2017-07-22T03:59:30.166Z,1013.83
2017-07-22T04:00:51.378Z,1013.84
2017-07-22T04:02:13.516Z,1013.85
2017-07-22T04:03:35.706Z,1013.87
2017-07-22T04:04:57.226Z,1013.88
2017-07-22T04:06:19.094Z,1013.88
2017-07-22T04:07:40.936Z,1013.89
2017-07-22T04:09:03.487Z,1013.87
2017-07-22T04:10:25.351Z,1013.87
2017-07-22T04:11:46.936Z,1013.86
2017-07-22T04:13:09.086Z,1013.87
2017-07-22T04:14:31.896Z,1013.88
2017-07-22T04:15:53.737Z,1013.85
2017-07-22T04:17:15.570Z,1013.85
2017-07-22T04:18:37.081Z,1013.87
2017-07-22T04:19:59.475Z,1013.88
2017-07-22T04:21:21.644Z,1013.88
2017-07-22T04:22:43.478Z,1013.9
2017-07-22T04:24:04.674Z,1013.9
2017-07-22T04:25:26.804Z,1013.91
2017-07-22T04:26:48.660Z,1013.88
2017-07-22T04:28:11.137Z,1013.87
2017-07-22T04:29:33.007Z,1013.9
2017-07-22T04:30:55.072Z,1013.84
2017-07-22T04:32:17.526Z,1013.77
2017-07-22T04:33:39.670Z,1013.79
2017-07-22T04:35:01.597Z,1013.78
2017-07-22T04:36:23.425Z,1013.79
2017-07-22T04:37:44.936Z,1013.81
2017-07-22T04:39:07.105Z,1013.72
2017-07-22T04:40:28.626Z,1013.7
2017-07-22T04:41:51.056Z,1013.7
2017-07-22T04:43:12.588Z,1013.66
2017-07-22T04:44:34.419Z,1013.66
2017-07-22T04:45:56.276Z,1013.72
2017-07-22T04:47:18.050Z,1013.77
2017-07-22T04:48:40.522Z,1013.81
2017-07-22T04:50:02.063Z,1013.88
2017-07-22T04:51:23.627Z,1013.97
2017-07-22T04:52:46.074Z,1014.02
2017-07-22T04:54:08.646Z,1014.05
2017-07-22T04:55:30.658Z,1014.07
2017-07-22T04:56:51.871Z,1014.03
2017-07-22T04:58:14.031Z,1014.05
2017-07-22T04:59:36.187Z,1014.11
2017-07-22T05:00:58.076Z,1014.18
2017-07-22T05:02:19.944Z,1014.23
2017-07-22T05:03:42.440Z,1014.36
2017-07-22T05:05:04.288Z,1014.45
2017-07-22T05:06:26.127Z,1014.54
2017-07-22T05:07:47.657Z,1014.65
2017-07-22T05:09:10.369Z,1014.65
2017-07-22T05:10:32.210Z,1014.56
2017-07-22T05:11:54.058Z,1014.58
2017-07-22T05:13:15.267Z,1014.8
2017-07-22T05:14:37.719Z,1014.75
2017-07-22T05:15:59.866Z,1014.6
2017-07-22T05:17:21.707Z,1014.41
2017-07-22T05:18:43.883Z,1014.52
2017-07-22T05:20:06.398Z,1014.53
2017-07-22T05:21:28.884Z,1014.26
2017-07-22T05:22:50.486Z,1014.22
2017-07-22T05:24:12.020Z,1014.28
2017-07-22T05:25:34.437Z,1014.29
2017-07-22T05:26:56.377Z,1014.22
2017-07-22T05:28:18.255Z,1014.18
2017-07-22T05:29:40.088Z,1014.14
2017-07-22T05:31:01.854Z,1014.1
2017-07-22T05:32:23.724Z,1014.05
2017-07-22T05:33:45.320Z,1014.06
2017-07-22T05:35:07.466Z,1014.14
2017-07-22T05:36:29.946Z,1014.1
2017-07-22T05:37:52.103Z,1014.13
2017-07-22T05:39:14.274Z,1014.13
2017-07-22T05:40:35.796Z,1014.15
2017-07-22T05:41:58.298Z,1014.17
2017-07-22T05:43:20.117Z,1014.21
2017-07-22T05:44:42.702Z,1014.23
2017-07-22T05:46:04.864Z,1014.29
2017-07-22T05:47:27.005Z,1014.27
2017-07-22T05:48:49.470Z,1014.22
2017-07-22T05:50:11.288Z,1014.22
2017-07-22T05:51:33.127Z,1014.15
2017-07-22T05:52:55.535Z,1014.19
2017-07-22T05:54:17.996Z,1014.19
2017-07-22T05:55:39.543Z,1014.19
2017-07-22T05:57:00.746Z,1014.21
2017-07-22T05:58:23.280Z,1014.21
2017-07-22T05:59:45.124Z,1014.32
2017-07-22T06:01:07.317Z,1014.37
2017-07-22T06:02:28.857Z,1014.44
2017-07-22T06:03:51.316Z,1014.42
2017-07-22T06:05:13.557Z,1014.37
2017-07-22T06:06:34.834Z,1014.41
2017-07-22T06:07:56.457Z,1014.45
2017-07-22T06:09:18.896Z,1014.45
2017-07-22T06:10:40.556Z,1014.48
2017-07-22T06:12:03.089Z,1014.51
2017-07-22T06:13:24.933Z,1014.55
2017-07-22T06:14:47.815Z,1014.53
2017-07-22T06:16:09.974Z,1014.55
2017-07-22T06:17:31.569Z,1014.53
2017-07-22T06:18:54.052Z,1014.56
2017-07-22T06:20:16.495Z,1014.55
2017-07-22T06:21:38.376Z,1014.55
2017-07-22T06:23:00.354Z,1014.55
2017-07-22T06:24:22.508Z,1014.54
2017-07-22T06:25:45.020Z,1014.53
2017-07-22T06:27:06.542Z,1014.56
2017-07-22T06:28:28.110Z,1014.58
2017-07-22T06:29:50.648Z,1014.54
2017-07-22T06:31:12.787Z,1014.52
2017-07-22T06:32:34.611Z,1014.53
2017-07-22T06:33:56.757Z,1014.53
2017-07-22T06:35:18.709Z,1014.55
2017-07-22T06:36:40.917Z,1014.57
2017-07-22T06:38:03.470Z,1014.61
2017-07-22T06:39:25.627Z,1014.6
2017-07-22T06:40:47.138Z,1014.54
2017-07-22T06:42:09.923Z,1014.57
2017-07-22T06:43:31.812Z,1014.56
2017-07-22T06:44:54.081Z,1014.59
2017-07-22T06:46:15.614Z,1014.61
2017-07-22T06:47:38.128Z,1014.6
2017-07-22T06:49:00.387Z,1014.61
2017-07-22T06:50:22.227Z,1014.56
2017-07-22T06:51:44.391Z,1014.66
2017-07-22T06:53:07.128Z,1014.66
2017-07-22T06:54:28.973Z,1014.65
2017-07-22T06:55:50.810Z,1014.64
2017-07-22T06:57:12.667Z,1014.64
2017-07-22T06:58:34.738Z,1014.61
2017-07-22T06:59:56.258Z,1014.64
2017-07-22T07:01:18.502Z,1014.65
2017-07-22T07:02:40.658Z,1014.64
2017-07-22T07:04:03.133Z,1014.68
2017-07-22T07:05:24.983Z,1014.67
2017-07-22T07:06:46.874Z,1014.73
2017-07-22T07:08:08.716Z,1014.89
2017-07-22T07:09:30.905Z,1014.96
2017-07-22T07:10:52.735Z,1015.05
2017-07-22T07:12:14.895Z,1015.12
2017-07-22T07:13:36.817Z,1015.09
2017-07-22T07:14:59.282Z,1015.11
2017-07-22T07:16:21.452Z,1015.11
2017-07-22T07:17:43.606Z,1015.15
2017-07-22T07:19:05.454Z,1015.22
2017-07-22T07:20:27.276Z,1015.17
2017-07-22T07:21:49.107Z,1015.15
2017-07-22T07:23:10.951Z,1015.16
2017-07-22T07:24:33.106Z,1015.13
2017-07-22T07:25:55.347Z,1015.13
2017-07-22T07:27:17.516Z,1015.08
2017-07-22T07:28:39.661Z,1015.16
2017-07-22T07:30:01.844Z,1015.17
2017-07-22T07:31:24.334Z,1015.2
2017-07-22T07:32:46.325Z,1015.25
2017-07-22T07:34:07.986Z,1015.3
2017-07-22T07:35:29.518Z,1015.32
2017-07-22T07:36:51.976Z,1015.3
2017-07-22T07:38:14.241Z,1015.35
2017-07-22T07:39:36.395Z,1015.41
2017-07-22T07:40:58.146Z,1015.4
2017-07-22T07:42:20.285Z,1015.39
2017-07-22T07:43:41.814Z,1015.3
2017-07-22T07:45:03.328Z,1015.2
2017-07-22T07:46:25.477Z,1015.15
2017-07-22T07:47:47.996Z,1015.14
2017-07-22T07:49:10.157Z,1015.06
2017-07-22T07:50:32.046Z,1015.01
2017-07-22T07:51:53.894Z,1014.99
2017-07-22T07:53:16.416Z,1014.96
2017-07-22T07:54:38.276Z,1014.93
2017-07-22T07:56:00.732Z,1014.95
2017-07-22T07:57:23.270Z,1014.92
2017-07-22T07:58:45.037Z,1014.96
2017-07-22T08:00:07.509Z,1014.97
2017-07-22T08:01:29.672Z,1015.02
2017-07-22T08:02:52.151Z,1015.05
2017-07-22T08:04:14.687Z,1015.03
2017-07-22T08:05:36.887Z,1015.06
2017-07-22T08:06:59.125Z,1015.02
2017-07-22T08:08:20.677Z,1014.93
2017-07-22T08:09:43.076Z,1014.85
2017-07-22T08:11:05.716Z,1014.81
2017-07-22T08:12:27.297Z,1014.78
2017-07-22T08:13:49.246Z,1014.81
2017-07-22T08:15:11.350Z,1014.83
2017-07-22T08:16:33.538Z,1014.85
2017-07-22T08:17:55.688Z,1014.85
2017-07-22T08:19:17.524Z,1014.88
2017-07-22T08:20:39.707Z,1014.93
2017-07-22T08:22:02.170Z,1014.98
2017-07-22T08:23:24.667Z,1015.03
2017-07-22T08:24:47.246Z,1015.01
2017-07-22T08:26:09.964Z,1014.96
2017-07-22T08:27:31.798Z,1014.98
2017-07-22T08:28:53.307Z,1014.98
2017-07-22T08:30:15.769Z,1015.04
2017-07-22T08:31:37.956Z,1015.05
2017-07-22T08:33:00.155Z,1015.08
2017-07-22T08:34:22.369Z,1015.01
2017-07-22T08:35:44.226Z,1015.04
2017-07-22T08:37:06.955Z,1015.05
2017-07-22T08:38:28.827Z,1015.06
2017-07-22T08:39:51.326Z,1015.02
2017-07-22T08:41:13.197Z,1015.07
2017-07-22T08:42:35.287Z,1015.09
2017-07-22T08:43:57.756Z,1015.2
2017-07-22T08:45:19.000Z,1015.21
2017-07-22T08:46:41.485Z,1015.26
2017-07-22T08:48:04.259Z,1015.31
2017-07-22T08:49:26.447Z,1015.3
2017-07-22T08:50:48.628Z,1015.29
2017-07-22T08:52:11.220Z,1015.32
2017-07-22T08:53:33.926Z,1015.3
2017-07-22T08:54:55.270Z,1015.29
2017-07-22T08:56:17.140Z,1015.28
2017-07-22T08:57:39.289Z,1015.31
2017-07-22T08:59:02.060Z,1015.29
2017-07-22T09:00:23.909Z,1015.24
2017-07-22T09:01:45.459Z,1015.22
2017-07-22T09:03:07.627Z,1015.21
2017-07-22T09:04:30.086Z,1015.2
2017-07-22T09:05:51.940Z,1015.17
2017-07-22T09:07:13.797Z,1015.17
2017-07-22T09:08:35.657Z,1015.14
2017-07-22T09:09:57.956Z,1015.17
2017-07-22T09:11:19.788Z,1015.14
2017-07-22T09:12:41.942Z,1015.11
2017-07-22T09:14:04.220Z,1015.07
2017-07-22T09:15:26.645Z,1015.13
2017-07-22T09:16:48.507Z,1015.19
2017-07-22T09:18:10.707Z,1015.16
2017-07-22T09:19:32.577Z,1015.15
2017-07-22T09:20:55.024Z,1015.18
2017-07-22T09:22:17.531Z,1015.18
2017-07-22T09:23:39.437Z,1015.09
2017-07-22T09:25:01.012Z,1015.05
2017-07-22T09:26:23.826Z,1015
2017-07-22T09:27:46.079Z,1014.96
2017-07-22T09:29:08.265Z,1015.03
2017-07-22T09:30:30.761Z,1015.07
2017-07-22T09:31:52.902Z,1015.06
2017-07-22T09:33:15.058Z,1015.07
2017-07-22T09:34:37.275Z,1015.11
2017-07-22T09:35:59.754Z,1015
2017-07-22T09:37:22.717Z,1014.97
2017-07-22T09:38:45.210Z,1014.93
2017-07-22T09:40:06.849Z,1014.91
2017-07-22T09:41:29.365Z,1014.93
2017-07-22T09:42:51.837Z,1014.9
2017-07-22T09:44:14.354Z,1014.85
2017-07-22T09:45:36.938Z,1014.86
2017-07-22T09:46:59.135Z,1014.86
2017-07-22T09:48:21.927Z,1014.91
2017-07-22T09:49:44.420Z,1014.93
2017-07-22T09:51:06.340Z,1014.98
2017-07-22T09:52:28.915Z,1014.99
2017-07-22T09:53:51.857Z,1015.08
2017-07-22T09:55:14.137Z,1015.07
2017-07-22T09:56:36.305Z,1015.09
2017-07-22T09:57:57.866Z,1015.14
2017-07-22T09:59:20.331Z,1015.24
2017-07-22T10:00:42.830Z,1015.28
2017-07-22T10:02:04.661Z,1015.33
2017-07-22T10:03:27.154Z,1015.31
2017-07-22T10:04:49.633Z,1015.31
2017-07-22T10:06:11.806Z,1015.26
2017-07-22T10:07:33.983Z,1015.27
2017-07-22T10:08:56.190Z,1015.23
2017-07-22T10:10:18.952Z,1015.25
2017-07-22T10:11:41.572Z,1015.2
2017-07-22T10:13:03.426Z,1015.18
2017-07-22T10:14:24.950Z,1015.21
2017-07-22T10:15:46.801Z,1015.31
2017-07-22T10:17:09.303Z,1015.38
2017-07-22T10:18:31.598Z,1015.38
2017-07-22T10:19:53.784Z,1015.4
2017-07-22T10:21:16.578Z,1015.38
2017-07-22T10:22:38.136Z,1015.3
2017-07-22T10:24:00.010Z,1015.25
2017-07-22T10:25:21.862Z,1015.4
2017-07-22T10:26:44.757Z,1015.33
2017-07-22T10:28:07.280Z,1015.29
2017-07-22T10:29:29.457Z,1015.34
2017-07-22T10:30:51.306Z,1015.47
2017-07-22T10:32:14.186Z,1015.41
2017-07-22T10:33:36.356Z,1015.36
2017-07-22T10:34:58.374Z,1015.3
2017-07-22T10:36:20.229Z,1015.35
2017-07-22T10:37:42.411Z,1015.2
2017-07-22T10:39:04.709Z,1015.28
2017-07-22T10:40:26.884Z,1015.19
2017-07-22T10:41:49.047Z,1015.08
2017-07-22T10:43:11.528Z,1015.18
2017-07-22T10:44:33.118Z,1015.24
2017-07-22T10:45:55.281Z,1015.36
2017-07-22T10:47:17.126Z,1015.33
2017-07-22T10:48:39.642Z,1015.45
2017-07-22T10:50:01.806Z,1015.33
2017-07-22T10:51:24.033Z,1015.25
2017-07-22T10:52:45.577Z,1015.25
2017-07-22T10:54:08.092Z,1015.13
2017-07-22T10:55:30.011Z,1015.14
2017-07-22T10:56:52.191Z,1015.1
2017-07-22T10:58:14.724Z,1015.22
2017-07-22T10:59:36.909Z,1015.17
2017-07-22T11:00:59.408Z,1015.11
2017-07-22T11:02:21.595Z,1015.1
2017-07-22T11:03:43.478Z,1015.3
2017-07-22T11:05:06.315Z,1015.11
2017-07-22T11:06:27.846Z,1015.3
2017-07-22T11:07:50.094Z,1015.18
2017-07-22T11:09:12.610Z,1015.3
2017-07-22T11:10:35.076Z,1015.19
2017-07-22T11:11:57.257Z,1015.19
2017-07-22T11:13:19.817Z,1015.04
2017-07-22T11:14:42.026Z,1015.07
2017-07-22T11:16:04.885Z,1015.18
2017-07-22T11:17:27.405Z,1015.19
2017-07-22T11:18:49.894Z,1015.29
2017-07-22T11:20:11.769Z,1015.23
2017-07-22T11:21:34.556Z,1015.33
2017-07-22T11:22:57.186Z,1015.39
2017-07-22T11:24:19.366Z,1015.33
2017-07-22T11:25:41.546Z,1015.25
2017-07-22T11:27:04.278Z,1015.26
2017-07-22T11:28:26.906Z,1015.28
2017-07-22T11:29:49.065Z,1015.3
2017-07-22T11:31:10.614Z,1015.2
2017-07-22T11:32:32.450Z,1015.25
2017-07-22T11:33:54.694Z,1015.31
2017-07-22T11:35:16.917Z,1015.37
2017-07-22T11:36:38.866Z,1015.31
2017-07-22T11:38:01.740Z,1015.25
2017-07-22T11:39:24.252Z,1015.22
2017-07-22T11:40:46.715Z,1015.36
2017-07-22T11:42:08.767Z,1015.19
2017-07-22T11:43:31.504Z,1015.12
2017-07-22T11:44:53.495Z,1015.09
2017-07-22T11:46:15.357Z,1015.11
2017-07-22T11:47:37.609Z,1015.13
2017-07-22T11:48:59.544Z,1015.08
2017-07-22T11:50:21.714Z,1015.15
2017-07-22T11:51:43.895Z,1015.19
2017-07-22T11:53:06.272Z,1015.19
2017-07-22T11:54:28.872Z,1015.22
2017-07-22T11:55:51.045Z,1015.26
2017-07-22T11:57:13.548Z,1015.23
2017-07-22T11:58:36.046Z,1015.21
2017-07-22T11:59:59.010Z,1015.22
2017-07-22T12:01:21.295Z,1015.22
2017-07-22T12:02:42.835Z,1015.25
2017-07-22T12:04:05.332Z,1015.18
2017-07-22T12:05:27.859Z,1015.11
2017-07-22T12:06:50.074Z,1015.06
2017-07-22T12:08:12.005Z,1015.04
2017-07-22T12:09:34.185Z,1015.08
2017-07-22T12:10:56.625Z,1014.98
2017-07-22T12:12:18.163Z,1014.97
2017-07-22T12:13:40.013Z,1014.99
2017-07-22T12:15:02.509Z,1014.99
2017-07-22T12:16:24.974Z,1014.93
2017-07-22T12:17:46.863Z,1015
2017-07-22T12:19:09.368Z,1015.01
2017-07-22T12:20:31.863Z,1014.92
2017-07-22T12:21:54.768Z,1015.01
2017-07-22T12:23:16.952Z,1014.83
2017-07-22T12:24:39.529Z,1014.82
2017-07-22T12:26:00.789Z,1014.83
2017-07-22T12:27:23.369Z,1014.9
2017-07-22T12:28:45.360Z,1014.82
2017-07-22T12:30:07.550Z,1014.88
2017-07-22T12:31:29.402Z,1014.85
2017-07-22T12:32:52.329Z,1014.8
2017-07-22T12:34:14.274Z,1014.83
2017-07-22T12:35:36.171Z,1014.83
2017-07-22T12:36:58.350Z,1014.92
2017-07-22T12:38:20.605Z,1014.84
2017-07-22T12:39:43.115Z,1014.89
2017-07-22T12:41:04.966Z,1014.91
2017-07-22T12:42:27.466Z,1014.93
2017-07-22T12:43:50.286Z,1014.84
2017-07-22T12:45:12.866Z,1014.83
2017-07-22T12:46:34.833Z,1014.86
2017-07-22T12:47:57.447Z,1014.93
2017-07-22T12:49:19.912Z,1014.87
2017-07-22T12:50:41.463Z,1014.82
2017-07-22T12:52:03.335Z,1014.82
2017-07-22T12:53:25.815Z,1014.83
2017-07-22T12:54:48.370Z,1014.85
2017-07-22T12:56:10.247Z,1014.84
2017-07-22T12:57:32.134Z,1014.82
2017-07-22T12:58:54.662Z,1014.85
2017-07-22T13:00:16.853Z,1014.85
2017-07-22T13:01:39.425Z,1014.9
2017-07-22T13:03:01.306Z,1014.95
2017-07-22T13:04:23.326Z,1014.94
2017-07-22T13:05:45.758Z,1014.98
2017-07-22T13:07:07.636Z,1015.08
2017-07-22T13:08:30.232Z,1015.05
2017-07-22T13:09:51.831Z,1015.08
2017-07-22T13:11:14.620Z,1015.12
2017-07-22T13:12:36.788Z,1015.13
2017-07-22T13:13:59.260Z,1014.95
2017-07-22T13:15:21.536Z,1015.05
2017-07-22T13:16:43.712Z,1014.96
2017-07-22T13:18:05.265Z,1014.97
2017-07-22T13:19:27.518Z,1015.02
2017-07-22T13:20:50.092Z,1015.11
2017-07-22T13:22:12.507Z,1014.96
2017-07-22T13:23:34.997Z,1014.92
2017-07-22T13:24:57.494Z,1015.04
2017-07-22T13:26:20.302Z,1014.95
2017-07-22T13:27:42.821Z,1014.95
2017-07-22T13:29:05.065Z,1014.92
2017-07-22T13:30:27.646Z,1014.93
2017-07-22T13:31:50.133Z,1014.93
2017-07-22T13:33:13.156Z,1014.95
2017-07-22T13:34:35.651Z,1014.91
2017-07-22T13:35:58.118Z,1014.88
2017-07-22T13:37:20.303Z,1014.91
2017-07-22T13:38:42.772Z,1014.87
2017-07-22T13:40:04.729Z,1014.87
2017-07-22T13:41:27.248Z,1014.82
2017-07-22T13:42:49.764Z,1014.86
2017-07-22T13:44:11.986Z,1014.8
2017-07-22T13:45:34.144Z,1014.79
2017-07-22T13:46:56.664Z,1014.77
2017-07-22T13:48:18.836Z,1014.72
2017-07-22T13:49:40.615Z,1014.68
2017-07-22T13:51:03.112Z,1014.66
2017-07-22T13:52:25.287Z,1014.69
2017-07-22T13:53:47.771Z,1014.62
2017-07-22T13:55:10.189Z,1014.61
2017-07-22T13:56:32.677Z,1014.6
2017-07-22T13:57:55.166Z,1014.6
2017-07-22T13:59:17.664Z,1014.5
2017-07-22T14:00:40.168Z,1014.57
2017-07-22T14:02:02.365Z,1014.47
2017-07-22T14:03:24.234Z,1014.47
2017-07-22T14:04:46.565Z,1014.48
2017-07-22T14:06:08.767Z,1014.5
2017-07-22T14:07:31.286Z,1014.49
2017-07-22T14:08:53.436Z,1014.46
2017-07-22T14:10:15.935Z,1014.46
2017-07-22T14:11:38.450Z,1014.45
2017-07-22T14:13:00.323Z,1014.44
2017-07-22T14:14:22.496Z,1014.41
2017-07-22T14:15:44.947Z,1014.45
2017-07-22T14:17:07.464Z,1014.44
2017-07-22T14:18:29.723Z,1014.41
2017-07-22T14:19:52.219Z,1014.39
2017-07-22T14:21:14.405Z,1014.44
2017-07-22T14:22:37.203Z,1014.47
2017-07-22T14:23:59.390Z,1014.46
2017-07-22T14:25:20.612Z,1014.4
2017-07-22T14:26:42.488Z,1014.39
2017-07-22T14:28:05.071Z,1014.35
2017-07-22T14:29:27.232Z,1014.29
2017-07-22T14:30:49.713Z,1014.3
2017-07-22T14:32:12.184Z,1014.26
2017-07-22T14:33:35.059Z,1014.32
2017-07-22T14:34:57.235Z,1014.35
2017-07-22T14:36:18.804Z,1014.33
2017-07-22T14:37:40.962Z,1014.32
2017-07-22T14:39:03.413Z,1014.38
2017-07-22T14:40:25.571Z,1014.4
2017-07-22T14:41:48.143Z,1014.37
2017-07-22T14:43:10.306Z,1014.37
2017-07-22T14:44:32.815Z,1014.33
2017-07-22T14:45:54.965Z,1014.23
2017-07-22T14:47:17.184Z,1014.24
2017-07-22T14:48:39.687Z,1014.25
2017-07-22T14:50:02.592Z,1014.3
2017-07-22T14:51:25.082Z,1014.25
2017-07-22T14:52:47.571Z,1014.27
2017-07-22T14:54:09.421Z,1014.21
2017-07-22T14:55:31.853Z,1014.43
2017-07-22T14:56:54.055Z,1014.37
2017-07-22T14:58:16.343Z,1014.4
2017-07-22T14:59:38.855Z,1014.45
2017-07-22T15:01:00.995Z,1014.35
2017-07-22T15:02:23.512Z,1014.28
2017-07-22T15:03:45.371Z,1014.32
2017-07-22T15:05:07.522Z,1014.24
2017-07-22T15:06:30.188Z,1014.28
2017-07-22T15:07:52.343Z,1014.24
2017-07-22T15:09:14.834Z,1014.23
2017-07-22T15:10:37.337Z,1014.21
2017-07-22T15:12:00.145Z,1014.19
2017-07-22T15:13:22.006Z,1014.16
2017-07-22T15:14:44.168Z,1014.15
2017-07-22T15:16:06.386Z,1014.12
2017-07-22T15:17:28.675Z,1014.09
2017-07-22T15:18:50.874Z,1014.07
2017-07-22T15:20:13.385Z,1014.04
2017-07-22T15:21:35.863Z,1014.06
2017-07-22T15:22:58.593Z,1014.06
2017-07-22T15:24:21.119Z,1014.02
2017-07-22T15:25:42.969Z,1014.08
2017-07-22T15:27:05.481Z,1014.09
2017-07-22T15:28:27.994Z,1014.04
2017-07-22T15:29:50.168Z,1014.01
2017-07-22T15:31:12.616Z,1014.03
2017-07-22T15:32:35.132Z,1014.01
2017-07-22T15:33:57.652Z,1013.98
2017-07-22T15:35:20.149Z,1013.97
2017-07-22T15:36:42.652Z,1013.9
2017-07-22T15:38:05.158Z,1013.94
2017-07-22T15:39:27.184Z,1013.95
2017-07-22T15:40:49.689Z,1013.95
2017-07-22T15:42:11.866Z,1013.97
2017-07-22T15:43:34.349Z,1014.02
2017-07-22T15:44:56.193Z,1014.05
2017-07-22T15:46:18.052Z,1013.98
2017-07-22T15:47:40.566Z,1013.95
2017-07-22T15:49:02.826Z,1013.99
2017-07-22T15:50:25.273Z,1014.04
2017-07-22T15:51:47.128Z,1014.01
2017-07-22T15:53:09.288Z,1013.96
2017-07-22T15:54:31.157Z,1013.98
2017-07-22T15:55:53.597Z,1013.93
2017-07-22T15:57:15.501Z,1013.97
2017-07-22T15:58:37.347Z,1013.97
2017-07-22T15:59:59.572Z,1013.97
2017-07-22T16:01:21.029Z,1014.02
2017-07-22T16:02:43.222Z,1014
2017-07-22T16:04:05.730Z,1014.07
2017-07-22T16:05:27.933Z,1014.08
2017-07-22T16:06:50.726Z,1014.07
2017-07-22T16:08:13.227Z,1014.09
2017-07-22T16:09:35.717Z,1014.05
2017-07-22T16:10:57.571Z,1014.12
2017-07-22T16:12:20.072Z,1014.13
2017-07-22T16:13:42.045Z,1014.16
2017-07-22T16:15:03.888Z,1014.11
2017-07-22T16:16:25.761Z,1014.12
2017-07-22T16:17:48.194Z,1014.1
2017-07-22T16:19:10.099Z,1014.09
2017-07-22T16:20:32.084Z,1014.07
2017-07-22T16:21:54.734Z,1014.15
2017-07-22T16:23:16.824Z,1014.05
2017-07-22T16:24:38.654Z,1014.06
2017-07-22T16:26:00.501Z,1014.09
2017-07-22T16:27:22.666Z,1014.04
2017-07-22T16:28:45.065Z,1014.04
2017-07-22T16:30:07.562Z,1013.99
2017-07-22T16:31:30.117Z,1013.98
2017-07-22T16:32:52.272Z,1013.93
2017-07-22T16:34:14.704Z,1013.96
2017-07-22T16:35:37.183Z,1014
2017-07-22T16:36:59.385Z,1013.99